Time;durP1;ratioP1;P1;durP2;ratioP2;P2;SDS_P1;SDS_P2;PMS_P1;PMS_P2;Temp;Humidity;BMP_temperature;BMP_pressure;BME280_temperature;BME280_humidity;BME280_pressure;Samples;Min_cycle;Max_cycle;Signal;HPM_P1;HPM_P2
2022/10/18 00:01:14;;;;;;;11.37;10.30;;;12.60;99.90;;;;;;4928108;29;20264;-80
2022/10/18 00:03:41;;;;;;;11.10;10.30;;;12.60;99.90;;;;;;4925985;29;20198;-80
2022/10/18 00:06:08;;;;;;;11.17;10.37;;;12.50;99.90;;;;;;4940241;29;20203;-80
2022/10/18 00:08:35;;;;;;;11.30;10.30;;;12.40;99.90;;;;;;4930449;29;20199;-80
2022/10/18 00:11:03;;;;;;;11.40;10.50;;;12.40;99.90;;;;;;4935904;29;20676;-80
2022/10/18 00:13:29;;;;;;;10.67;9.87;;;12.40;99.90;;;;;;4928776;29;20255;-80
2022/10/18 00:16:00;;;;;;;11.30;10.47;;;12.40;99.90;;;;;;4926450;29;20250;-80
2022/10/18 00:18:28;;;;;;;11.50;10.63;;;12.40;99.90;;;;;;4928248;29;20672;-80
2022/10/18 00:20:59;;;;;;;11.47;10.57;;;12.40;99.90;;;;;;4926436;29;20222;-79
2022/10/18 00:23:27;;;;;;;11.20;10.40;;;12.40;99.90;;;;;;4939264;29;20202;-80
2022/10/18 00:26:06;;;;;;;11.23;10.27;;;12.40;99.90;;;;;;4923192;29;20207;-80
2022/10/18 00:28:34;;;;;;;11.03;10.17;;;12.40;99.90;;;;;;4917982;29;20202;-80
2022/10/18 00:31:12;;;;;;;11.37;10.37;;;12.40;99.90;;;;;;4940794;28;20633;-80
2022/10/18 00:33:39;;;;;;;11.33;10.37;;;12.30;99.90;;;;;;4937213;29;20195;-80
2022/10/18 00:36:07;;;;;;;11.70;10.80;;;12.30;99.90;;;;;;4943794;29;20199;-79
2022/10/18 00:38:34;;;;;;;11.07;10.27;;;12.30;99.90;;;;;;4926316;29;20258;-80
2022/10/18 00:41:02;;;;;;;11.00;10.30;;;12.30;99.90;;;;;;4943151;29;20214;-80
2022/10/18 00:43:29;;;;;;;10.60;9.90;;;12.40;99.90;;;;;;4923232;29;20210;-80
2022/10/18 00:45:56;;;;;;;11.40;10.43;;;12.40;99.90;;;;;;4928056;29;20213;-80
2022/10/18 00:48:24;;;;;;;10.87;9.87;;;12.50;99.90;;;;;;4931171;29;20202;-80
2022/10/18 00:50:52;;;;;;;11.50;10.60;;;12.50;99.90;;;;;;4946917;28;20222;-80
2022/10/18 00:53:22;;;;;;;11.47;10.57;;;12.60;99.90;;;;;;4939712;29;20207;-80
2022/10/18 00:55:49;;;;;;;12.27;11.27;;;12.60;99.90;;;;;;4944879;29;20210;-80
2022/10/18 00:58:18;;;;;;;11.63;10.73;;;12.60;99.90;;;;;;4932641;28;20227;-81
2022/10/18 01:00:45;;;;;;;12.33;11.33;;;12.60;99.90;;;;;;4924433;29;20693;-80
2022/10/18 01:03:12;;;;;;;11.70;10.90;;;12.60;99.90;;;;;;4943366;29;20199;-79
2022/10/18 01:05:45;;;;;;;12.07;11.17;;;12.60;99.90;;;;;;4926062;29;20258;-80
2022/10/18 01:08:29;;;;;;;11.77;10.97;;;12.60;99.90;;;;;;4927319;29;20213;-81
2022/10/18 01:11:05;;;;;;;12.10;11.03;;;12.60;99.90;;;;;;4937201;29;20600;-80
2022/10/18 01:13:42;;;;;;;13.07;11.93;;;12.50;99.90;;;;;;4926538;29;20210;-80
2022/10/18 01:16:16;;;;;;;12.43;11.53;;;12.50;99.90;;;;;;4930251;29;20218;-80
2022/10/18 01:18:48;;;;;;;12.03;11.23;;;12.50;99.90;;;;;;4946509;29;20218;-81
2022/10/18 01:21:30;;;;;;;12.23;11.23;;;12.50;99.90;;;;;;4950166;29;20218;-80
2022/10/18 01:24:41;;;;;;;11.77;10.87;;;12.50;99.90;;;;;;4948291;29;20694;-81
2022/10/18 01:27:33;;;;;;;11.97;11.10;;;12.60;99.90;;;;;;4945586;29;20206;-80
2022/10/18 01:30:39;;;;;;;11.57;10.67;;;12.60;99.90;;;;;;4946806;29;20217;-80
2022/10/18 01:33:19;;;;;;;11.80;11.00;;;12.70;99.90;;;;;;4920756;29;20279;-80
2022/10/18 01:35:51;;;;;;;12.20;11.10;;;12.80;99.90;;;;;;4929460;29;20216;-80
2022/10/18 01:38:20;;;;;;;12.73;11.63;;;12.80;99.90;;;;;;4932425;29;20618;-81
2022/10/18 01:40:51;;;;;;;11.87;10.97;;;12.90;99.90;;;;;;4922508;29;20238;-80
2022/10/18 01:43:19;;;;;;;11.77;10.97;;;13.00;99.90;;;;;;4931224;29;20234;-80
2022/10/18 01:45:47;;;;;;;8.90;8.10;;;13.00;99.90;;;;;;4946152;29;20201;-80
2022/10/18 01:48:17;;;;;;;5.97;5.40;;;13.00;99.90;;;;;;4947565;29;20192;-80
2022/10/18 01:50:44;;;;;;;6.43;5.83;;;13.00;99.90;;;;;;4929169;29;20215;-80
2022/10/18 01:53:25;;;;;;;11.10;10.20;;;13.10;99.90;;;;;;4947959;29;20198;-80
2022/10/18 01:56:02;;;;;;;12.07;11.07;;;13.10;99.90;;;;;;4927946;29;20199;-80
2022/10/18 01:58:36;;;;;;;11.87;11.07;;;13.10;99.90;;;;;;4924091;29;20265;-81
2022/10/18 02:01:07;;;;;;;12.17;11.23;;;13.10;99.90;;;;;;4949015;29;20222;-80
2022/10/18 02:03:39;;;;;;;9.87;9.00;;;13.10;99.90;;;;;;4944503;29;20199;-80
2022/10/18 02:06:12;;;;;;;9.73;8.80;;;13.10;99.90;;;;;;4926045;29;20215;-80
2022/10/18 02:08:46;;;;;;;8.77;8.17;;;13.20;99.90;;;;;;4939419;29;20203;-80
2022/10/18 02:11:15;;;;;;;9.47;8.67;;;13.20;99.90;;;;;;4927486;29;20241;-81
2022/10/18 02:13:45;;;;;;;9.27;8.57;;;13.20;99.90;;;;;;4932453;29;20199;-80
2022/10/18 02:16:16;;;;;;;10.93;10.13;;;13.20;99.90;;;;;;4929931;29;20306;-80
2022/10/18 02:18:48;;;;;;;11.00;9.77;;;13.20;99.90;;;;;;4948590;29;20238;-80
2022/10/18 02:21:19;;;;;;;12.27;11.47;;;13.20;99.90;;;;;;4921629;29;20703;-81
2022/10/18 02:23:47;;;;;;;11.80;11.00;;;13.30;99.90;;;;;;4928582;29;20554;-80
2022/10/18 02:26:15;;;;;;;11.70;10.90;;;13.30;99.90;;;;;;4929381;29;20571;-80
2022/10/18 02:28:42;;;;;;;12.23;11.23;;;13.30;99.90;;;;;;4927293;29;20202;-80
2022/10/18 02:31:19;;;;;;;12.33;11.43;;;13.30;99.90;;;;;;4932880;28;20724;-80
2022/10/18 02:33:53;;;;;;;11.40;10.67;;;13.40;99.90;;;;;;4948349;29;20198;-80
2022/10/18 02:36:27;;;;;;;11.30;10.50;;;13.40;99.90;;;;;;4939004;29;20210;-80
2022/10/18 02:39:00;;;;;;;10.87;10.13;;;13.40;99.90;;;;;;4928272;29;20665;-80
2022/10/18 02:41:28;;;;;;;11.70;10.90;;;13.30;99.90;;;;;;4920104;29;20597;-82
2022/10/18 02:43:55;;;;;;;11.43;10.63;;;13.30;99.90;;;;;;4928201;29;20664;-80
2022/10/18 02:46:22;;;;;;;11.50;10.70;;;13.30;99.90;;;;;;4928269;29;20203;-80
2022/10/18 02:48:50;;;;;;;11.43;10.63;;;13.30;99.90;;;;;;4928701;29;20204;-80
2022/10/18 02:51:17;;;;;;;11.50;10.70;;;13.30;99.90;;;;;;4919681;29;20223;-80
2022/10/18 02:53:44;;;;;;;11.43;10.63;;;13.30;99.90;;;;;;4929493;29;20649;-79
2022/10/18 02:56:10;;;;;;;11.30;10.53;;;13.20;99.90;;;;;;4928901;29;20684;-79
2022/10/18 02:58:37;;;;;;;11.43;10.60;;;13.20;99.90;;;;;;4933995;29;20202;-81
2022/10/18 03:01:04;;;;;;;11.53;10.83;;;13.20;99.90;;;;;;4929470;29;20219;-82
2022/10/18 03:03:31;;;;;;;11.47;10.77;;;13.20;99.90;;;;;;4915029;29;20214;-82
2022/10/18 03:05:59;;;;;;;12.40;11.60;;;13.30;99.90;;;;;;4918789;29;20199;-82
2022/10/18 03:08:26;;;;;;;11.87;11.17;;;13.30;99.90;;;;;;4921695;29;20207;-82
2022/10/18 03:10:53;;;;;;;11.90;11.20;;;13.20;99.90;;;;;;4920418;29;20742;-83
2022/10/18 03:13:20;;;;;;;11.80;11.00;;;13.30;99.90;;;;;;4921654;29;20226;-82
2022/10/18 03:15:47;;;;;;;12.67;11.67;;;13.30;99.90;;;;;;4926911;29;20207;-80
2022/10/18 03:18:14;;;;;;;13.20;12.30;;;13.30;99.90;;;;;;4943534;29;20235;-80
2022/10/18 03:20:41;;;;;;;12.20;11.40;;;13.30;99.90;;;;;;4925850;29;20279;-79
2022/10/18 03:23:09;;;;;;;12.27;11.37;;;13.30;99.90;;;;;;4946566;29;20206;-79
2022/10/18 03:25:36;;;;;;;13.57;12.77;;;13.30;99.90;;;;;;4942063;29;20660;-79
2022/10/18 03:28:03;;;;;;;12.83;12.03;;;13.30;99.90;;;;;;4940025;29;20669;-80
2022/10/18 03:30:30;;;;;;;13.30;12.40;;;13.30;99.90;;;;;;4926033;29;20234;-79
2022/10/18 03:32:57;;;;;;;12.70;11.90;;;13.40;99.90;;;;;;4927222;29;20198;-80
2022/10/18 03:35:24;;;;;;;13.83;12.83;;;13.40;99.90;;;;;;4929128;29;20214;-79
2022/10/18 03:37:51;;;;;;;13.13;12.23;;;13.40;99.90;;;;;;4925981;29;20206;-79
2022/10/18 03:40:19;;;;;;;12.60;11.80;;;13.40;99.90;;;;;;4944317;29;20282;-78
2022/10/18 03:42:46;;;;;;;12.67;11.77;;;13.40;99.90;;;;;;4925306;29;20695;-78
2022/10/18 03:45:13;;;;;;;13.23;12.43;;;13.40;99.90;;;;;;4921706;29;20207;-78
2022/10/18 03:47:40;;;;;;;12.73;11.90;;;13.40;99.90;;;;;;4946662;29;20199;-79
2022/10/18 03:50:07;;;;;;;12.60;11.80;;;13.50;99.90;;;;;;4942334;29;20226;-79
2022/10/18 03:52:34;;;;;;;13.43;12.43;;;13.50;99.90;;;;;;4944897;29;20270;-79
2022/10/18 03:55:01;;;;;;;12.50;11.80;;;13.50;99.90;;;;;;4925799;29;20191;-79
2022/10/18 03:57:29;;;;;;;12.17;11.37;;;13.50;99.90;;;;;;4924117;29;20389;-80
2022/10/18 03:59:56;;;;;;;12.90;12.10;;;13.60;99.90;;;;;;4926248;29;20775;-79
2022/10/18 04:02:23;;;;;;;13.53;12.60;;;13.60;99.90;;;;;;4938652;29;20222;-79
2022/10/18 04:04:51;;;;;;;13.70;12.80;;;13.60;99.90;;;;;;4941495;28;20199;-79
2022/10/18 04:07:18;;;;;;;13.33;12.53;;;13.60;99.90;;;;;;4941964;29;20277;-79
2022/10/18 04:09:44;;;;;;;13.33;12.37;;;13.60;99.90;;;;;;4937704;28;20272;-79
2022/10/18 04:12:11;;;;;;;13.10;12.10;;;13.60;99.90;;;;;;4926575;29;20191;-79
2022/10/18 04:14:39;;;;;;;12.57;11.77;;;13.60;99.90;;;;;;4943435;29;20191;-79
2022/10/18 04:17:06;;;;;;;13.20;12.20;;;13.60;99.90;;;;;;4926687;29;20262;-79
2022/10/18 04:19:33;;;;;;;12.80;12.00;;;13.60;99.90;;;;;;4925171;29;20274;-79
2022/10/18 04:22:00;;;;;;;11.90;11.20;;;13.60;99.90;;;;;;4945844;29;20218;-79
2022/10/18 04:24:27;;;;;;;12.00;11.20;;;13.50;99.90;;;;;;4932026;29;20222;-78
2022/10/18 04:26:54;;;;;;;11.97;11.17;;;13.50;99.90;;;;;;4940004;29;20211;-79
2022/10/18 04:29:21;;;;;;;12.47;11.73;;;13.50;99.90;;;;;;4927785;29;20294;-78
2022/10/18 04:31:49;;;;;;;6.33;5.43;;;13.50;99.90;;;;;;4941639;29;20210;-79
2022/10/18 04:34:16;;;;;;;4.37;3.97;;;13.40;99.90;;;;;;4927370;29;20203;-79
2022/10/18 04:36:43;;;;;;;6.10;4.30;;;13.40;99.90;;;;;;4942713;29;20218;-79
2022/10/18 04:39:09;;;;;;;4.80;4.40;;;13.40;99.90;;;;;;4926745;28;20213;-79
2022/10/18 04:41:36;;;;;;;4.37;3.97;;;13.40;99.90;;;;;;4925156;29;20214;-79
2022/10/18 04:44:03;;;;;;;13.50;12.50;;;13.30;99.90;;;;;;4937248;29;20258;-79
2022/10/18 04:46:30;;;;;;;4.93;4.30;;;13.20;99.90;;;;;;4934465;29;20207;-79
2022/10/18 04:49:00;;;;;;;4.50;4.10;;;13.20;99.90;;;;;;4923847;29;20677;-79
2022/10/18 04:51:27;;;;;;;4.60;4.20;;;13.10;99.90;;;;;;4932873;29;20196;-80
2022/10/18 04:53:53;;;;;;;5.23;4.30;;;13.10;99.90;;;;;;4930366;29;20213;-79
2022/10/18 04:56:20;;;;;;;11.13;10.43;;;13.10;99.90;;;;;;4926091;29;20258;-79
2022/10/18 04:58:47;;;;;;;15.17;14.27;;;13.00;99.90;;;;;;4927254;29;20207;-79
2022/10/18 05:01:15;;;;;;;11.97;11.17;;;13.00;99.90;;;;;;4928748;29;20223;-79
2022/10/18 05:03:42;;;;;;;5.80;5.30;;;13.00;99.90;;;;;;4946329;29;20195;-78
2022/10/18 05:06:11;;;;;;;7.13;6.53;;;13.10;99.90;;;;;;4947080;29;20203;-79
2022/10/18 05:08:38;;;;;;;5.27;4.77;;;13.10;99.90;;;;;;4930964;29;20200;-78
2022/10/18 05:11:05;;;;;;;6.43;5.67;;;13.10;99.90;;;;;;4947068;29;20230;-77
2022/10/18 05:13:32;;;;;;;5.10;4.70;;;13.10;99.90;;;;;;4942791;29;20257;-78
2022/10/18 05:15:59;;;;;;;4.50;4.10;;;13.10;99.90;;;;;;4942074;29;20250;-79
2022/10/18 05:18:26;;;;;;;4.50;4.10;;;13.10;99.90;;;;;;4949346;29;20218;-78
2022/10/18 05:20:53;;;;;;;4.80;4.30;;;13.10;99.90;;;;;;4945268;28;20365;-79
2022/10/18 05:23:21;;;;;;;4.30;3.90;;;13.10;99.90;;;;;;4930078;29;20277;-79
2022/10/18 05:25:48;;;;;;;6.87;6.27;;;13.20;99.90;;;;;;4946084;29;20668;-79
2022/10/18 05:28:16;;;;;;;5.43;4.93;;;13.20;99.90;;;;;;4929932;29;20246;-78
2022/10/18 05:30:43;;;;;;;8.47;7.97;;;13.20;99.90;;;;;;4926969;29;20222;-79
2022/10/18 05:33:09;;;;;;;4.30;3.97;;;13.20;99.90;;;;;;4948593;29;20205;-79
2022/10/18 05:35:36;;;;;;;5.20;4.80;;;13.20;99.90;;;;;;4929154;29;20209;-79
2022/10/18 05:38:04;;;;;;;10.90;10.30;;;13.20;99.90;;;;;;4944312;29;20206;-79
2022/10/18 05:40:33;;;;;;;10.77;10.07;;;13.20;99.90;;;;;;4945856;28;20267;-79
2022/10/18 05:42:59;;;;;;;5.77;5.27;;;13.20;99.90;;;;;;4947768;29;20291;-79
2022/10/18 05:45:26;;;;;;;8.20;7.60;;;13.10;99.90;;;;;;4946207;29;20203;-79
2022/10/18 05:47:54;;;;;;;6.70;6.30;;;13.10;99.90;;;;;;4927100;29;20223;-79
2022/10/18 05:50:20;;;;;;;5.53;5.03;;;13.10;99.90;;;;;;4946509;29;20726;-79
2022/10/18 05:52:47;;;;;;;5.53;5.03;;;13.00;99.90;;;;;;4929822;29;20202;-78
2022/10/18 05:55:14;;;;;;;5.70;5.23;;;13.00;99.90;;;;;;4942965;29;20213;-79
2022/10/18 05:57:42;;;;;;;4.70;4.30;;;13.00;99.90;;;;;;4945999;29;20608;-79
2022/10/18 06:00:11;;;;;;;6.63;6.13;;;13.00;99.90;;;;;;4947283;28;20226;-79
2022/10/18 06:02:41;;;;;;;6.03;4.63;;;13.00;99.90;;;;;;4928963;29;20561;-79
2022/10/18 06:05:09;;;;;;;6.13;5.63;;;13.00;99.90;;;;;;4946356;29;20246;-78
2022/10/18 06:07:36;;;;;;;5.90;5.30;;;12.90;99.90;;;;;;4948221;29;20222;-79
2022/10/18 06:10:03;;;;;;;5.60;5.10;;;12.90;99.90;;;;;;4931283;29;20222;-79
2022/10/18 06:12:30;;;;;;;6.23;5.10;;;12.80;99.90;;;;;;4943898;29;20199;-79
2022/10/18 06:14:58;;;;;;;5.23;4.73;;;12.80;99.90;;;;;;4932459;29;20196;-79
2022/10/18 06:17:25;;;;;;;7.30;6.77;;;12.80;99.90;;;;;;4930889;29;20202;-78
2022/10/18 06:19:52;;;;;;;17.63;16.33;;;12.80;99.90;;;;;;4931507;29;20222;-79
2022/10/18 06:22:18;;;;;;;11.17;10.37;;;12.80;99.90;;;;;;4930884;29;20230;-79
2022/10/18 06:24:45;;;;;;;13.73;12.83;;;12.90;99.90;;;;;;4925219;29;20211;-79
2022/10/18 06:27:12;;;;;;;16.50;15.40;;;12.90;99.90;;;;;;4947769;29;20695;-78
2022/10/18 06:29:40;;;;;;;8.33;7.73;;;13.00;99.90;;;;;;4926201;29;20289;-78
2022/10/18 06:32:08;;;;;;;4.13;3.83;;;13.10;99.90;;;;;;4941241;29;20246;-78
2022/10/18 06:34:35;;;;;;;4.70;3.80;;;13.20;99.90;;;;;;4927273;29;20199;-79
2022/10/18 06:37:02;;;;;;;4.30;3.90;;;13.50;99.90;;;;;;4927827;29;20203;-79
2022/10/18 06:39:29;;;;;;;4.43;4.03;;;13.90;99.90;;;;;;4946815;29;20222;-79
2022/10/18 06:41:56;;;;;;;5.53;4.50;;;14.20;99.90;;;;;;4928839;29;20194;-80
2022/10/18 06:44:24;;;;;;;4.23;3.90;;;14.60;99.90;;;;;;4946183;29;20258;-79
2022/10/18 06:46:52;;;;;;;4.33;3.93;;;14.90;99.90;;;;;;4945388;29;20195;-78
2022/10/18 06:49:20;;;;;;;4.27;3.90;;;15.10;99.90;;;;;;4940630;29;20221;-78
2022/10/18 06:51:47;;;;;;;9.97;9.27;;;15.30;99.90;;;;;;4925911;29;20507;-80
2022/10/18 06:54:15;;;;;;;12.17;11.13;;;15.50;99.90;;;;;;4923498;29;20211;-79
2022/10/18 06:56:42;;;;;;;10.90;10.20;;;15.60;99.90;;;;;;4927843;29;20212;-79
2022/10/18 06:59:09;;;;;;;9.10;8.40;;;15.80;99.90;;;;;;4927938;29;20575;-79
2022/10/18 07:01:36;;;;;;;9.57;8.77;;;15.80;99.90;;;;;;4947827;29;20689;-78
2022/10/18 07:04:03;;;;;;;6.10;5.60;;;15.90;99.90;;;;;;4930230;29;20703;-78
2022/10/18 07:06:31;;;;;;;5.97;5.40;;;15.90;99.90;;;;;;4930924;29;20273;-79
2022/10/18 07:08:59;;;;;;;6.73;5.37;;;15.80;99.90;;;;;;4930424;28;20189;-78
2022/10/18 07:11:27;;;;;;;8.83;8.17;;;15.80;99.90;;;;;;4924185;29;20241;-79
2022/10/18 07:13:59;;;;;;;8.87;8.13;;;15.80;99.90;;;;;;4941969;29;20202;-78
2022/10/18 07:16:26;;;;;;;12.07;11.17;;;15.70;99.90;;;;;;4927320;29;20201;-80
2022/10/18 07:18:53;;;;;;;12.20;11.50;;;15.70;99.90;;;;;;4927011;29;20252;-79
2022/10/18 07:21:22;;;;;;;12.60;11.80;;;15.70;99.90;;;;;;4945884;29;20233;-78
2022/10/18 07:23:51;;;;;;;11.70;11.00;;;15.80;99.90;;;;;;4944450;29;20309;-79
2022/10/18 07:26:20;;;;;;;12.70;11.70;;;16.00;99.90;;;;;;4946378;29;20203;-80
2022/10/18 07:28:49;;;;;;;12.10;11.20;;;16.10;99.90;;;;;;4943819;29;20195;-80
2022/10/18 07:31:17;;;;;;;12.33;11.53;;;16.40;99.90;;;;;;4954083;29;20225;-82
2022/10/18 07:33:43;;;;;;;12.03;11.03;;;16.50;99.90;;;;;;4947177;29;20242;-79
2022/10/18 07:36:12;;;;;;;7.70;7.00;;;16.60;99.90;;;;;;4939054;29;20297;-79
2022/10/18 07:38:38;;;;;;;3.87;3.53;;;16.60;99.90;;;;;;4941505;29;20198;-79
2022/10/18 07:41:08;;;;;;;9.83;9.10;;;16.60;99.90;;;;;;4927661;29;20289;-78
2022/10/18 07:43:35;;;;;;;11.67;10.87;;;16.60;99.90;;;;;;4946876;29;20707;-79
2022/10/18 07:46:03;;;;;;;11.33;10.40;;;16.60;99.90;;;;;;4940547;28;20573;-79
2022/10/18 07:48:31;;;;;;;11.57;10.77;;;16.60;99.90;;;;;;4939383;29;20678;-79
2022/10/18 07:50:59;;;;;;;10.57;9.87;;;16.70;99.90;;;;;;4929596;29;20281;-82
2022/10/18 07:53:26;;;;;;;11.43;10.73;;;16.80;99.90;;;;;;4924863;29;20202;-79
2022/10/18 07:55:57;;;;;;;12.17;11.30;;;16.90;99.90;;;;;;4936782;29;20656;-78
2022/10/18 07:58:25;;;;;;;10.20;9.50;;;17.00;99.90;;;;;;4944922;29;20241;-78
2022/10/18 08:00:52;;;;;;;11.57;10.73;;;17.00;99.90;;;;;;4941527;28;20274;-79
2022/10/18 08:03:19;;;;;;;11.00;10.30;;;17.10;99.90;;;;;;4926301;29;20219;-79
2022/10/18 08:05:52;;;;;;;6.33;5.83;;;17.10;99.90;;;;;;4924124;29;20211;-79
2022/10/18 08:08:19;;;;;;;10.53;9.90;;;17.10;99.90;;;;;;4926152;29;20207;-78
2022/10/18 08:10:46;;;;;;;8.13;7.43;;;17.10;99.90;;;;;;4923399;29;20631;-79
2022/10/18 08:13:13;;;;;;;4.67;3.50;;;17.30;99.90;;;;;;4919124;29;20211;-78
2022/10/18 08:15:42;;;;;;;4.20;3.80;;;17.40;99.90;;;;;;4946240;29;20203;-79
2022/10/18 08:18:09;;;;;;;10.27;9.57;;;17.50;99.90;;;;;;4940276;29;20260;-79
2022/10/18 08:20:36;;;;;;;10.77;10.07;;;17.70;99.90;;;;;;4925588;29;20709;-79
2022/10/18 08:23:04;;;;;;;8.80;7.97;;;17.80;99.90;;;;;;4943613;28;20213;-79
2022/10/18 08:25:31;;;;;;;5.50;3.77;;;17.90;99.90;;;;;;4950104;29;20610;-79
2022/10/18 08:28:00;;;;;;;4.23;3.83;;;18.20;99.90;;;;;;4930009;29;20209;-79
2022/10/18 08:30:27;;;;;;;4.87;3.93;;;18.60;99.90;;;;;;4942476;29;20304;-78
2022/10/18 08:32:55;;;;;;;7.00;6.30;;;19.10;99.90;;;;;;4931445;29;20197;-79
2022/10/18 08:35:22;;;;;;;4.43;3.87;;;19.40;99.90;;;;;;4927836;29;20209;-79
2022/10/18 08:37:50;;;;;;;5.60;4.30;;;19.50;99.90;;;;;;4927251;29;20691;-79
2022/10/18 08:40:17;;;;;;;11.17;10.37;;;19.60;99.90;;;;;;4948032;28;20237;-78
2022/10/18 08:42:58;;;;;;;11.63;10.63;;;19.50;99.90;;;;;;4948104;29;20210;-78
2022/10/18 08:45:26;;;;;;;9.50;8.70;;;19.50;99.90;;;;;;4932528;29;20237;-79
2022/10/18 08:47:57;;;;;;;9.37;8.57;;;19.40;99.90;;;;;;4929315;29;20210;-79
2022/10/18 08:50:28;;;;;;;10.73;9.80;;;19.30;99.90;;;;;;4948521;29;20219;-79
2022/10/18 08:53:03;;;;;;;10.03;9.17;;;19.20;99.90;;;;;;4947092;29;20258;-79
2022/10/18 08:55:35;;;;;;;10.00;9.20;;;19.00;99.90;;;;;;4924608;29;20207;-79
2022/10/18 08:58:04;;;;;;;10.50;9.60;;;19.10;99.90;;;;;;4932787;29;20213;-79
2022/10/18 09:00:36;;;;;;;11.07;10.27;;;19.50;99.90;;;;;;4944574;29;20219;-79
2022/10/18 09:03:17;;;;;;;11.33;10.50;;;20.00;99.90;;;;;;4932850;29;20230;-78
2022/10/18 09:05:50;;;;;;;11.40;10.00;;;20.20;99.90;;;;;;4927385;29;20199;-79
2022/10/18 09:08:47;;;;;;;9.40;8.70;;;20.80;99.90;;;;;;4930636;29;20207;-79
2022/10/18 09:11:29;;;;;;;4.63;4.00;;;21.50;99.90;;;;;;4927170;29;20231;-79
2022/10/18 09:14:31;;;;;;;5.87;5.37;;;21.80;99.90;;;;;;4944868;29;20196;-79
2022/10/18 09:17:07;;;;;;;4.63;4.10;;;22.20;99.90;;;;;;4942279;29;20217;-79
2022/10/18 09:19:53;;;;;;;8.70;8.00;;;22.20;99.90;;;;;;4938947;28;20230;-79
2022/10/18 09:22:24;;;;;;;11.67;10.50;;;22.40;99.90;;;;;;4929352;29;20263;-79
2022/10/18 09:24:58;;;;;;;5.83;5.23;;;22.70;99.90;;;;;;4929038;29;20231;-79
2022/10/18 09:27:38;;;;;;;8.70;4.10;;;22.90;99.90;;;;;;4948996;29;20191;-79
2022/10/18 09:30:13;;;;;;;5.47;4.30;;;23.00;99.90;;;;;;4942803;28;20218;-79
2022/10/18 09:32:49;;;;;;;10.57;9.80;;;23.20;99.90;;;;;;4929765;29;20693;-79
2022/10/18 09:35:21;;;;;;;8.30;7.50;;;23.30;99.90;;;;;;4929903;29;20210;-79
2022/10/18 09:37:49;;;;;;;9.53;8.67;;;23.00;99.90;;;;;;4944999;29;20190;-79
2022/10/18 09:40:21;;;;;;;11.20;10.40;;;22.50;99.90;;;;;;4947141;29;20234;-79
2022/10/18 09:42:54;;;;;;;10.57;9.77;;;22.20;99.90;;;;;;4947643;29;20198;-79
2022/10/18 09:45:26;;;;;;;9.57;8.80;;;21.90;99.90;;;;;;4943574;29;20206;-79
2022/10/18 09:48:03;;;;;;;5.87;4.17;;;21.70;99.90;;;;;;4927068;29;20673;-79
2022/10/18 09:50:37;;;;;;;5.90;4.30;;;21.50;99.90;;;;;;4937575;29;20242;-79
2022/10/18 09:53:12;;;;;;;6.80;5.97;;;21.30;99.90;;;;;;4946188;29;20197;-79
2022/10/18 09:55:48;;;;;;;5.40;4.90;;;21.10;99.90;;;;;;4939330;29;20203;-79
2022/10/18 09:58:16;;;;;;;6.37;4.33;;;21.00;99.90;;;;;;4927899;29;20415;-79
2022/10/18 10:00:48;;;;;;;11.60;10.70;;;20.90;99.90;;;;;;4927569;29;20278;-79
2022/10/18 10:03:15;;;;;;;7.87;4.60;;;20.90;99.90;;;;;;4930897;29;20225;-79
2022/10/18 10:05:44;;;;;;;5.13;4.33;;;20.90;99.90;;;;;;4927247;29;20726;-79
2022/10/18 10:08:11;;;;;;;5.77;4.33;;;20.90;99.90;;;;;;4941046;29;20620;-79
2022/10/18 10:10:40;;;;;;;5.20;4.20;;;20.80;99.90;;;;;;4926697;29;20290;-79
2022/10/18 10:13:15;;;;;;;5.27;4.53;;;20.80;99.90;;;;;;4945680;29;20628;-79
2022/10/18 10:15:48;;;;;;;5.93;4.40;;;20.80;99.90;;;;;;4929215;29;20538;-79
2022/10/18 10:18:21;;;;;;;4.40;3.90;;;20.80;99.90;;;;;;4948098;29;20686;-79
2022/10/18 10:20:52;;;;;;;5.00;4.27;;;20.90;99.90;;;;;;4930780;29;20254;-79
2022/10/18 10:23:21;;;;;;;5.47;4.20;;;21.00;99.90;;;;;;4946071;29;20211;-80
2022/10/18 10:25:52;;;;;;;4.40;4.00;;;21.10;99.90;;;;;;4932347;29;20203;-81
2022/10/18 10:28:22;;;;;;;5.10;4.33;;;21.30;99.90;;;;;;4922208;29;20695;-81
2022/10/18 10:30:49;;;;;;;4.77;4.27;;;21.50;99.90;;;;;;4925223;29;20238;-80
2022/10/18 10:33:34;;;;;;;5.40;4.20;;;21.60;99.90;;;;;;4929621;29;20204;-79
2022/10/18 10:36:05;;;;;;;6.70;4.10;;;21.70;99.90;;;;;;4926905;29;20200;-79
2022/10/18 10:38:33;;;;;;;4.77;4.37;;;21.70;99.90;;;;;;4939842;29;20195;-81
2022/10/18 10:41:00;;;;;;;5.17;4.57;;;21.80;99.90;;;;;;4946331;29;20229;-79
2022/10/18 10:43:28;;;;;;;7.53;4.37;;;21.70;99.90;;;;;;4928678;29;20215;-80
2022/10/18 10:45:59;;;;;;;7.97;7.30;;;21.80;99.90;;;;;;4943948;29;20262;-80
2022/10/18 10:48:27;;;;;;;8.90;8.30;;;21.80;99.90;;;;;;4928206;29;20664;-80
2022/10/18 10:50:59;;;;;;;9.60;8.90;;;21.80;99.90;;;;;;4952295;28;20219;-80
2022/10/18 10:53:58;;;;;;;11.00;10.20;;;21.80;99.90;;;;;;4944179;29;20201;-80
2022/10/18 10:56:27;;;;;;;5.90;5.40;;;21.90;99.90;;;;;;4918900;29;20583;-80
2022/10/18 10:58:55;;;;;;;3.90;3.60;;;21.90;99.90;;;;;;4929032;29;20262;-80
2022/10/18 11:01:26;;;;;;;4.17;3.87;;;22.00;99.90;;;;;;4924741;29;20210;-80
2022/10/18 11:03:56;;;;;;;4.00;3.60;;;22.00;99.90;;;;;;4947839;29;20215;-79
2022/10/18 11:06:40;;;;;;;4.27;3.87;;;22.00;99.90;;;;;;4926737;29;20249;-79
2022/10/18 11:09:19;;;;;;;4.70;4.17;;;22.00;99.90;;;;;;4942283;29;20206;-80
2022/10/18 11:11:58;;;;;;;7.67;3.77;;;21.90;99.90;;;;;;4925801;29;20199;-80
2022/10/18 11:14:27;;;;;;;4.07;3.67;;;21.90;99.90;;;;;;4929026;29;20192;-81
2022/10/18 11:17:01;;;;;;;4.00;3.60;;;21.80;99.90;;;;;;4927665;29;20207;-79
2022/10/18 11:19:35;;;;;;;8.67;7.93;;;21.70;99.90;;;;;;4934784;29;20219;-80
2022/10/18 11:22:08;;;;;;;9.97;9.17;;;21.60;99.90;;;;;;4927146;29;20210;-79
2022/10/18 11:24:37;;;;;;;11.23;10.43;;;21.40;99.90;;;;;;4937943;29;20578;-80
2022/10/18 11:27:09;;;;;;;4.70;3.70;;;21.40;99.90;;;;;;4944475;29;20199;-80
2022/10/18 11:29:48;;;;;;;4.17;3.87;;;21.40;99.90;;;;;;4932611;29;20223;-79
2022/10/18 11:32:25;;;;;;;10.00;9.40;;;21.40;99.90;;;;;;4947205;29;20198;-80
2022/10/18 11:35:05;;;;;;;10.87;9.90;;;21.50;99.90;;;;;;4945919;29;20202;-79
2022/10/18 11:37:49;;;;;;;11.30;10.50;;;21.50;99.90;;;;;;4910405;29;20576;-80
2022/10/18 11:40:35;;;;;;;3.63;3.33;;;21.40;99.90;;;;;;4928204;29;20723;-79
2022/10/18 11:43:10;;;;;;;3.77;3.47;;;21.40;99.90;;;;;;4931140;29;20207;-80
2022/10/18 11:45:46;;;;;;;4.23;3.80;;;21.50;99.90;;;;;;4928467;29;20225;-80
2022/10/18 11:48:32;;;;;;;5.70;3.83;;;21.50;99.90;;;;;;4926755;29;20661;-80
2022/10/18 11:51:08;;;;;;;3.77;3.47;;;21.30;99.90;;;;;;4923819;29;20219;-79
2022/10/18 11:53:43;;;;;;;4.03;3.53;;;21.40;99.90;;;;;;4943487;29;20202;-79
2022/10/18 11:56:16;;;;;;;10.73;10.03;;;21.40;99.90;;;;;;4943701;29;20194;-79
2022/10/18 11:58:58;;;;;;;6.00;4.63;;;21.50;99.90;;;;;;4926304;29;20597;-79
2022/10/18 12:01:32;;;;;;;4.03;3.63;;;21.60;99.90;;;;;;4947085;29;20194;-79
2022/10/18 12:04:04;;;;;;;4.17;3.60;;;21.60;99.90;;;;;;4940367;29;20210;-80
2022/10/18 12:06:35;;;;;;;4.60;3.50;;;21.80;99.90;;;;;;4941082;29;20199;-80
2022/10/18 12:09:08;;;;;;;5.70;3.80;;;22.00;99.90;;;;;;4944308;28;20202;-80
2022/10/18 12:11:44;;;;;;;4.03;3.63;;;22.10;99.90;;;;;;4924097;29;20241;-80
2022/10/18 12:14:22;;;;;;;4.50;3.73;;;22.30;99.90;;;;;;4939331;29;20195;-79
2022/10/18 12:16:50;;;;;;;4.60;3.97;;;22.40;99.90;;;;;;4947121;29;20660;-80
2022/10/18 12:19:20;;;;;;;5.87;3.67;;;22.40;99.90;;;;;;4939357;29;20230;-80
2022/10/18 12:21:47;;;;;;;7.83;7.23;;;22.40;99.90;;;;;;4943023;29;20195;-80
2022/10/18 12:24:17;;;;;;;7.90;7.30;;;22.40;99.90;;;;;;4928349;29;20231;-79
2022/10/18 12:26:48;;;;;;;8.87;8.17;;;22.40;99.90;;;;;;4945026;29;20233;-80
2022/10/18 12:29:21;;;;;;;9.00;8.30;;;22.50;99.90;;;;;;4929958;28;20199;-80
2022/10/18 12:31:52;;;;;;;9.10;8.40;;;22.60;99.90;;;;;;4926698;29;20199;-80
2022/10/18 12:34:29;;;;;;;4.30;3.50;;;22.80;99.90;;;;;;4942629;29;20258;-80
2022/10/18 12:37:16;;;;;;;3.67;3.37;;;23.00;99.90;;;;;;4923740;29;20201;-79
2022/10/18 12:39:47;;;;;;;4.50;3.07;;;23.20;99.90;;;;;;4937288;28;20602;-81
2022/10/18 12:42:25;;;;;;;3.20;2.90;;;23.30;99.90;;;;;;4943582;29;20203;-79
2022/10/18 12:45:01;;;;;;;3.27;2.97;;;23.40;99.90;;;;;;4925816;29;20214;-80
2022/10/18 12:47:30;;;;;;;4.20;2.93;;;23.50;99.90;;;;;;4936330;29;20630;-79
2022/10/18 12:49:58;;;;;;;3.10;2.80;;;23.50;99.90;;;;;;4942492;28;20215;-79
2022/10/18 12:52:27;;;;;;;4.60;4.07;;;23.60;99.90;;;;;;4927633;29;20581;-80
2022/10/18 12:55:06;;;;;;;3.60;3.03;;;23.60;99.90;;;;;;4925423;29;20684;-80